sensor_id;sensor_type;location;lat;lon;timestamp;pressure;altitude;pressure_sealevel;temperature;humidity
20710;BME280;10516;51.518;9.864;2022-08-27T00:01:58;98556.63;;;20.74;78.06
20710;BME280;10516;51.518;9.864;2022-08-27T00:04:24;98583.75;;;20.66;79.27
20710;BME280;10516;51.518;9.864;2022-08-27T00:06:50;98562.00;;;21.84;73.23
20710;BME280;10516;51.518;9.864;2022-08-27T00:09:16;98565.47;;;21.26;76.80
20710;BME280;10516;51.518;9.864;2022-08-27T00:11:41;98569.13;;;21.30;76.70
20710;BME280;10516;51.518;9.864;2022-08-27T00:14:07;98580.03;;;21.97;73.68
20710;BME280;10516;51.518;9.864;2022-08-27T00:16:32;98580.47;;;21.24;77.60
20710;BME280;10516;51.518;9.864;2022-08-27T00:18:58;98587.78;;;21.40;76.37
20710;BME280;10516;51.518;9.864;2022-08-27T00:21:24;98560.22;;;21.59;74.74
20710;BME280;10516;51.518;9.864;2022-08-27T00:23:49;98568.66;;;21.28;76.53
20710;BME280;10516;51.518;9.864;2022-08-27T00:26:15;98584.94;;;22.04;73.32
20710;BME280;10516;51.518;9.864;2022-08-27T00:28:41;98586.53;;;22.05;73.14
20710;BME280;10516;51.518;9.864;2022-08-27T00:31:07;98591.78;;;21.72;74.65
20710;BME280;10516;51.518;9.864;2022-08-27T00:33:33;98582.31;;;21.49;76.38
20710;BME280;10516;51.518;9.864;2022-08-27T00:35:59;98580.97;;;21.63;75.38
20710;BME280;10516;51.518;9.864;2022-08-27T00:38:25;98581.97;;;21.50;76.02
20710;BME280;10516;51.518;9.864;2022-08-27T00:40:51;98581.78;;;21.18;78.02
20710;BME280;10516;51.518;9.864;2022-08-27T00:43:27;98590.31;;;21.45;76.57
20710;BME280;10516;51.518;9.864;2022-08-27T00:45:58;98587.75;;;21.87;74.12
20710;BME280;10516;51.518;9.864;2022-08-27T00:48:28;98584.31;;;21.60;75.08
20710;BME280;10516;51.518;9.864;2022-08-27T00:50:56;98587.28;;;21.76;74.97
20710;BME280;10516;51.518;9.864;2022-08-27T00:53:25;98592.63;;;21.26;76.62
20710;BME280;10516;51.518;9.864;2022-08-27T00:55:56;98592.19;;;21.91;73.80
20710;BME280;10516;51.518;9.864;2022-08-27T00:58:32;98587.31;;;22.05;73.29
20710;BME280;10516;51.518;9.864;2022-08-27T01:00:58;98582.94;;;22.13;72.52
20710;BME280;10516;51.518;9.864;2022-08-27T01:03:25;98579.78;;;21.44;75.63
20710;BME280;10516;51.518;9.864;2022-08-27T01:05:52;98592.09;;;21.79;74.17
20710;BME280;10516;51.518;9.864;2022-08-27T01:08:25;98585.78;;;21.20;76.36
20710;BME280;10516;51.518;9.864;2022-08-27T01:10:51;98583.09;;;20.77;78.20
20710;BME280;10516;51.518;9.864;2022-08-27T01:13:19;98606.38;;;21.13;76.92
20710;BME280;10516;51.518;9.864;2022-08-27T01:15:46;98602.56;;;21.51;75.16
20710;BME280;10516;51.518;9.864;2022-08-27T01:18:13;98605.59;;;20.86;77.77
20710;BME280;10516;51.518;9.864;2022-08-27T01:21:04;98583.28;;;20.81;77.73
20710;BME280;10516;51.518;9.864;2022-08-27T01:23:43;98583.72;;;20.91;76.92
20710;BME280;10516;51.518;9.864;2022-08-27T01:26:13;98610.94;;;20.01;81.61
20710;BME280;10516;51.518;9.864;2022-08-27T01:28:40;98606.25;;;19.76;82.66
20710;BME280;10516;51.518;9.864;2022-08-27T01:31:07;98614.31;;;20.15;81.48
20710;BME280;10516;51.518;9.864;2022-08-27T01:33:33;98612.94;;;19.39;84.91
20710;BME280;10516;51.518;9.864;2022-08-27T01:35:58;98608.25;;;19.62;83.19
20710;BME280;10516;51.518;9.864;2022-08-27T01:38:24;98616.03;;;19.94;82.41
20710;BME280;10516;51.518;9.864;2022-08-27T01:40:51;98613.25;;;20.25;79.92
20710;BME280;10516;51.518;9.864;2022-08-27T01:43:18;98622.50;;;20.41;79.88
20710;BME280;10516;51.518;9.864;2022-08-27T01:45:47;98620.47;;;19.51;84.05
20710;BME280;10516;51.518;9.864;2022-08-27T01:48:17;98598.69;;;19.56;82.64
20710;BME280;10516;51.518;9.864;2022-08-27T01:50:44;98615.03;;;20.46;79.43
20710;BME280;10516;51.518;9.864;2022-08-27T01:53:16;98600.00;;;20.32;79.71
20710;BME280;10516;51.518;9.864;2022-08-27T01:55:44;98624.19;;;20.02;81.59
20710;BME280;10516;51.518;9.864;2022-08-27T01:58:10;98634.31;;;19.80;82.84
20710;BME280;10516;51.518;9.864;2022-08-27T02:00:38;98631.53;;;20.10;81.10
20710;BME280;10516;51.518;9.864;2022-08-27T02:03:06;98617.09;;;20.32;80.13
20710;BME280;10516;51.518;9.864;2022-08-27T02:05:32;98608.00;;;19.72;82.20
20710;BME280;10516;51.518;9.864;2022-08-27T02:07:58;98610.47;;;19.60;83.48
20710;BME280;10516;51.518;9.864;2022-08-27T02:10:28;98617.28;;;20.44;79.11
20710;BME280;10516;51.518;9.864;2022-08-27T02:12:54;98625.03;;;20.97;77.01
20710;BME280;10516;51.518;9.864;2022-08-27T02:15:20;98613.03;;;21.32;75.21
20710;BME280;10516;51.518;9.864;2022-08-27T02:17:46;98614.56;;;19.88;81.14
20710;BME280;10516;51.518;9.864;2022-08-27T02:20:12;98621.06;;;20.77;77.77
20710;BME280;10516;51.518;9.864;2022-08-27T02:22:39;98627.09;;;19.75;82.03
20710;BME280;10516;51.518;9.864;2022-08-27T02:25:06;98622.22;;;19.94;80.83
20710;BME280;10516;51.518;9.864;2022-08-27T02:27:33;98625.28;;;19.31;84.58
20710;BME280;10516;51.518;9.864;2022-08-27T02:29:58;98612.00;;;18.91;86.63
20710;BME280;10516;51.518;9.864;2022-08-27T02:32:24;98619.38;;;18.77;88.00
20710;BME280;10516;51.518;9.864;2022-08-27T02:34:49;98610.81;;;18.83;86.86
20710;BME280;10516;51.518;9.864;2022-08-27T02:37:15;98629.31;;;18.67;88.41
20710;BME280;10516;51.518;9.864;2022-08-27T02:39:40;98620.59;;;18.70;87.77
20710;BME280;10516;51.518;9.864;2022-08-27T02:42:06;98629.66;;;18.52;89.73
20710;BME280;10516;51.518;9.864;2022-08-27T02:44:32;98617.22;;;19.71;83.08
20710;BME280;10516;51.518;9.864;2022-08-27T02:46:59;98597.44;;;19.62;82.58
20710;BME280;10516;51.518;9.864;2022-08-27T02:49:26;98633.44;;;20.10;81.35
20710;BME280;10516;51.518;9.864;2022-08-27T02:51:53;98634.16;;;19.46;84.25
20710;BME280;10516;51.518;9.864;2022-08-27T02:54:19;98616.16;;;18.75;87.49
20710;BME280;10516;51.518;9.864;2022-08-27T02:56:45;98631.16;;;18.58;88.73
20710;BME280;10516;51.518;9.864;2022-08-27T02:59:10;98626.31;;;18.69;88.09
20710;BME280;10516;51.518;9.864;2022-08-27T03:01:35;98618.91;;;19.27;84.50
20710;BME280;10516;51.518;9.864;2022-08-27T03:04:01;98622.63;;;18.87;87.27
20710;BME280;10516;51.518;9.864;2022-08-27T03:06:27;98625.69;;;19.16;85.75
20710;BME280;10516;51.518;9.864;2022-08-27T03:08:52;98618.09;;;19.97;81.63
20710;BME280;10516;51.518;9.864;2022-08-27T03:11:18;98613.88;;;19.34;84.46
20710;BME280;10516;51.518;9.864;2022-08-27T03:13:43;98615.09;;;20.07;80.86
20710;BME280;10516;51.518;9.864;2022-08-27T03:16:08;98614.53;;;18.65;87.98
20710;BME280;10516;51.518;9.864;2022-08-27T03:18:34;98623.47;;;18.96;87.44
20710;BME280;10516;51.518;9.864;2022-08-27T03:21:00;98619.31;;;19.74;82.66
20710;BME280;10516;51.518;9.864;2022-08-27T03:23:30;98626.63;;;20.30;79.88
20710;BME280;10516;51.518;9.864;2022-08-27T03:26:02;98624.59;;;20.35;79.51
20710;BME280;10516;51.518;9.864;2022-08-27T03:28:32;98602.44;;;20.50;78.37
20710;BME280;10516;51.518;9.864;2022-08-27T03:31:00;98625.72;;;20.94;76.81
20710;BME280;10516;51.518;9.864;2022-08-27T03:33:36;98603.97;;;21.03;75.84
20710;BME280;10516;51.518;9.864;2022-08-27T03:36:01;98628.66;;;21.44;74.69
20710;BME280;10516;51.518;9.864;2022-08-27T03:38:27;98617.13;;;20.75;77.45
20710;BME280;10516;51.518;9.864;2022-08-27T03:40:53;98627.44;;;20.30;79.04
20710;BME280;10516;51.518;9.864;2022-08-27T03:43:20;98622.06;;;20.81;76.79
20710;BME280;10516;51.518;9.864;2022-08-27T03:45:47;98633.69;;;20.56;78.17
20710;BME280;10516;51.518;9.864;2022-08-27T03:48:13;98620.88;;;19.75;81.01
20710;BME280;10516;51.518;9.864;2022-08-27T03:50:42;98627.94;;;20.32;78.67
20710;BME280;10516;51.518;9.864;2022-08-27T03:53:09;98610.34;;;19.65;81.27
20710;BME280;10516;51.518;9.864;2022-08-27T03:55:35;98621.72;;;19.84;80.47
20710;BME280;10516;51.518;9.864;2022-08-27T03:58:01;98615.91;;;19.07;84.31
20710;BME280;10516;51.518;9.864;2022-08-27T04:00:26;98620.09;;;19.13;84.08
20710;BME280;10516;51.518;9.864;2022-08-27T04:02:52;98620.03;;;19.57;82.29
20710;BME280;10516;51.518;9.864;2022-08-27T04:05:19;98623.69;;;19.53;81.95
20710;BME280;10516;51.518;9.864;2022-08-27T04:07:47;98602.53;;;19.32;82.67
20710;BME280;10516;51.518;9.864;2022-08-27T04:10:14;98619.38;;;19.52;82.04
20710;BME280;10516;51.518;9.864;2022-08-27T04:12:40;98620.69;;;20.10;79.55
20710;BME280;10516;51.518;9.864;2022-08-27T04:15:07;98598.53;;;18.77;84.34
20710;BME280;10516;51.518;9.864;2022-08-27T04:17:33;98619.66;;;19.19;83.55
20710;BME280;10516;51.518;9.864;2022-08-27T04:20:00;98618.94;;;19.58;81.97
20710;BME280;10516;51.518;9.864;2022-08-27T04:22:26;98618.97;;;19.36;82.38
20710;BME280;10516;51.518;9.864;2022-08-27T04:24:52;98616.88;;;20.20;78.95
20710;BME280;10516;51.518;9.864;2022-08-27T04:27:18;98617.47;;;18.77;85.04
20710;BME280;10516;51.518;9.864;2022-08-27T04:29:44;98606.56;;;19.13;82.66
20710;BME280;10516;51.518;9.864;2022-08-27T04:32:10;98600.06;;;19.44;80.96
20710;BME280;10516;51.518;9.864;2022-08-27T04:34:35;98609.84;;;19.54;80.85
20710;BME280;10516;51.518;9.864;2022-08-27T04:37:01;98633.63;;;19.35;82.16
20710;BME280;10516;51.518;9.864;2022-08-27T04:39:28;98633.06;;;19.94;80.01
20710;BME280;10516;51.518;9.864;2022-08-27T04:41:55;98626.34;;;20.31;77.82
20710;BME280;10516;51.518;9.864;2022-08-27T04:44:22;98627.63;;;19.47;80.97
20710;BME280;10516;51.518;9.864;2022-08-27T04:46:47;98623.84;;;18.81;83.70
20710;BME280;10516;51.518;9.864;2022-08-27T04:49:15;98641.22;;;19.02;83.20
20710;BME280;10516;51.518;9.864;2022-08-27T04:51:41;98644.41;;;18.33;85.90
20710;BME280;10516;51.518;9.864;2022-08-27T04:54:08;98632.31;;;18.66;84.50
20710;BME280;10516;51.518;9.864;2022-08-27T04:56:34;98641.28;;;18.53;85.62
20710;BME280;10516;51.518;9.864;2022-08-27T04:59:02;98632.72;;;18.73;84.63
20710;BME280;10516;51.518;9.864;2022-08-27T05:01:29;98637.16;;;19.44;81.69
20710;BME280;10516;51.518;9.864;2022-08-27T05:03:56;98643.00;;;18.49;86.40
20710;BME280;10516;51.518;9.864;2022-08-27T05:06:23;98625.13;;;18.61;85.37
20710;BME280;10516;51.518;9.864;2022-08-27T05:08:49;98598.78;;;18.67;84.17
20710;BME280;10516;51.518;9.864;2022-08-27T05:11:16;98631.00;;;18.28;86.21
20710;BME280;10516;51.518;9.864;2022-08-27T05:13:43;98645.53;;;17.91;88.59
20710;BME280;10516;51.518;9.864;2022-08-27T05:16:18;98638.41;;;18.36;86.25
20710;BME280;10516;51.518;9.864;2022-08-27T05:18:45;98630.44;;;18.04;87.09
20710;BME280;10516;51.518;9.864;2022-08-27T05:21:23;98626.47;;;19.39;80.99
20710;BME280;10516;51.518;9.864;2022-08-27T05:23:49;98643.44;;;19.31;81.64
20710;BME280;10516;51.518;9.864;2022-08-27T05:26:15;98637.31;;;19.17;81.95
20710;BME280;10516;51.518;9.864;2022-08-27T05:28:40;98651.66;;;19.39;81.08
20710;BME280;10516;51.518;9.864;2022-08-27T05:31:08;98650.53;;;18.96;83.20
20710;BME280;10516;51.518;9.864;2022-08-27T05:33:34;98642.44;;;17.97;86.97
20710;BME280;10516;51.518;9.864;2022-08-27T05:36:00;98647.91;;;18.47;85.64
20710;BME280;10516;51.518;9.864;2022-08-27T05:38:28;98647.91;;;18.47;85.76
20710;BME280;10516;51.518;9.864;2022-08-27T05:41:03;98644.25;;;18.02;86.75
20710;BME280;10516;51.518;9.864;2022-08-27T05:43:29;98659.50;;;19.05;82.80
20710;BME280;10516;51.518;9.864;2022-08-27T05:45:56;98645.13;;;19.18;81.84
20710;BME280;10516;51.518;9.864;2022-08-27T05:48:21;98646.84;;;19.36;80.97
20710;BME280;10516;51.518;9.864;2022-08-27T05:50:47;98652.97;;;19.90;78.11
20710;BME280;10516;51.518;9.864;2022-08-27T05:53:12;98658.38;;;18.62;83.79
20710;BME280;10516;51.518;9.864;2022-08-27T05:55:40;98655.75;;;18.70;83.61
20710;BME280;10516;51.518;9.864;2022-08-27T05:58:06;98653.59;;;19.25;80.45
20710;BME280;10516;51.518;9.864;2022-08-27T06:00:35;98662.84;;;19.02;82.23
20710;BME280;10516;51.518;9.864;2022-08-27T06:03:19;98664.16;;;19.13;82.04
20710;BME280;10516;51.518;9.864;2022-08-27T06:05:45;98642.28;;;19.23;80.95
20710;BME280;10516;51.518;9.864;2022-08-27T06:08:10;98655.31;;;19.21;80.95
20710;BME280;10516;51.518;9.864;2022-08-27T06:10:38;98659.31;;;19.24;81.01
20710;BME280;10516;51.518;9.864;2022-08-27T06:13:04;98655.72;;;19.59;79.06
20710;BME280;10516;51.518;9.864;2022-08-27T06:15:30;98666.53;;;19.28;80.41
20710;BME280;10516;51.518;9.864;2022-08-27T06:17:55;98664.41;;;19.25;80.75
20710;BME280;10516;51.518;9.864;2022-08-27T06:20:21;98667.78;;;19.84;78.61
20710;BME280;10516;51.518;9.864;2022-08-27T06:22:48;98674.41;;;20.08;77.44
20710;BME280;10516;51.518;9.864;2022-08-27T06:25:13;98659.38;;;20.50;75.35
20710;BME280;10516;51.518;9.864;2022-08-27T06:27:38;98669.84;;;20.26;76.60
20710;BME280;10516;51.518;9.864;2022-08-27T06:30:04;98661.84;;;19.20;79.75
20710;BME280;10516;51.518;9.864;2022-08-27T06:32:30;98653.66;;;19.34;78.94
20710;BME280;10516;51.518;9.864;2022-08-27T06:34:55;98681.03;;;19.10;81.35
20710;BME280;10516;51.518;9.864;2022-08-27T06:37:20;98657.59;;;19.81;77.95
20710;BME280;10516;51.518;9.864;2022-08-27T06:39:46;98665.59;;;18.53;81.57
20710;BME280;10516;51.518;9.864;2022-08-27T06:42:11;98661.47;;;18.69;81.41
20710;BME280;10516;51.518;9.864;2022-08-27T06:44:37;98665.75;;;19.89;76.81
20710;BME280;10516;51.518;9.864;2022-08-27T06:47:03;98657.25;;;20.30;75.30
20710;BME280;10516;51.518;9.864;2022-08-27T06:49:29;98681.09;;;20.67;73.98
20710;BME280;10516;51.518;9.864;2022-08-27T06:51:54;98660.97;;;20.03;76.17
20710;BME280;10516;51.518;9.864;2022-08-27T06:54:20;98662.66;;;20.22;75.49
20710;BME280;10516;51.518;9.864;2022-08-27T06:56:46;98684.44;;;20.90;73.22
20710;BME280;10516;51.518;9.864;2022-08-27T06:59:15;98689.22;;;20.76;73.72
20710;BME280;10516;51.518;9.864;2022-08-27T07:01:44;98699.94;;;20.81;73.74
20710;BME280;10516;51.518;9.864;2022-08-27T07:04:15;98687.19;;;19.77;77.67
20710;BME280;10516;51.518;9.864;2022-08-27T07:06:40;98700.22;;;20.62;74.50
20710;BME280;10516;51.518;9.864;2022-08-27T07:09:06;98687.94;;;20.82;73.59
20710;BME280;10516;51.518;9.864;2022-08-27T07:11:32;98690.56;;;19.83;77.18
20710;BME280;10516;51.518;9.864;2022-08-27T07:13:58;98707.72;;;20.09;76.55
20710;BME280;10516;51.518;9.864;2022-08-27T07:16:25;98700.88;;;20.85;73.26
20710;BME280;10516;51.518;9.864;2022-08-27T07:18:54;98703.94;;;21.18;72.52
20710;BME280;10516;51.518;9.864;2022-08-27T07:21:21;98693.41;;;21.08;72.32
20710;BME280;10516;51.518;9.864;2022-08-27T07:23:48;98709.84;;;21.11;72.45
20710;BME280;10516;51.518;9.864;2022-08-27T07:26:14;98692.91;;;21.06;72.67
20710;BME280;10516;51.518;9.864;2022-08-27T07:28:41;98715.72;;;20.87;73.13
20710;BME280;10516;51.518;9.864;2022-08-27T07:31:10;98708.13;;;20.25;75.61
20710;BME280;10516;51.518;9.864;2022-08-27T07:33:37;98696.66;;;20.36;75.16
20710;BME280;10516;51.518;9.864;2022-08-27T07:36:06;98710.13;;;20.75;73.93
20710;BME280;10516;51.518;9.864;2022-08-27T07:38:33;98709.78;;;20.60;74.61
20710;BME280;10516;51.518;9.864;2022-08-27T07:40:58;98698.78;;;20.90;73.02
20710;BME280;10516;51.518;9.864;2022-08-27T07:43:24;98700.06;;;20.50;74.69
20710;BME280;10516;51.518;9.864;2022-08-27T07:46:08;98722.31;;;19.60;78.55
20710;BME280;10516;51.518;9.864;2022-08-27T07:48:33;98707.38;;;20.02;77.04
20710;BME280;10516;51.518;9.864;2022-08-27T07:51:00;98701.31;;;19.66;77.79
20710;BME280;10516;51.518;9.864;2022-08-27T07:53:30;98721.63;;;20.72;74.37
20710;BME280;10516;51.518;9.864;2022-08-27T07:56:01;98715.88;;;20.91;73.27
20710;BME280;10516;51.518;9.864;2022-08-27T07:58:26;98724.00;;;20.74;74.10
20710;BME280;10516;51.518;9.864;2022-08-27T08:00:54;98720.03;;;20.88;73.51
20710;BME280;10516;51.518;9.864;2022-08-27T08:03:20;98719.50;;;20.44;74.95
20710;BME280;10516;51.518;9.864;2022-08-27T08:05:46;98723.91;;;21.05;72.86
20710;BME280;10516;51.518;9.864;2022-08-27T08:08:13;98730.59;;;21.16;72.69
20710;BME280;10516;51.518;9.864;2022-08-27T08:10:39;98715.09;;;21.42;71.30
20710;BME280;10516;51.518;9.864;2022-08-27T08:13:05;98732.47;;;21.58;71.20
20710;BME280;10516;51.518;9.864;2022-08-27T08:15:31;98730.34;;;21.81;70.30
20710;BME280;10516;51.518;9.864;2022-08-27T08:17:57;98732.66;;;21.53;71.16
20710;BME280;10516;51.518;9.864;2022-08-27T08:20:22;98739.34;;;21.64;70.69
20710;BME280;10516;51.518;9.864;2022-08-27T08:22:48;98733.31;;;21.24;72.56
20710;BME280;10516;51.518;9.864;2022-08-27T08:25:14;98738.25;;;21.48;71.72
20710;BME280;10516;51.518;9.864;2022-08-27T08:27:40;98736.25;;;21.74;70.22
20710;BME280;10516;51.518;9.864;2022-08-27T08:30:07;98727.53;;;21.43;71.25
20710;BME280;10516;51.518;9.864;2022-08-27T08:32:33;98740.97;;;21.39;71.65
20710;BME280;10516;51.518;9.864;2022-08-27T08:34:58;98731.72;;;21.40;71.06
20710;BME280;10516;51.518;9.864;2022-08-27T08:37:25;98736.31;;;20.88;73.34
20710;BME280;10516;51.518;9.864;2022-08-27T08:39:51;98687.66;;;20.75;73.16
20710;BME280;10516;51.518;9.864;2022-08-27T08:42:28;98736.03;;;21.16;72.19
20710;BME280;10516;51.518;9.864;2022-08-27T08:44:56;98727.72;;;21.29;71.56
20710;BME280;10516;51.518;9.864;2022-08-27T08:47:44;98725.47;;;21.40;70.86
20710;BME280;10516;51.518;9.864;2022-08-27T08:50:15;98739.38;;;21.47;71.13
20710;BME280;10516;51.518;9.864;2022-08-27T08:58:50;98731.69;;;20.98;73.53
20710;BME280;10516;51.518;9.864;2022-08-27T09:01:18;98716.66;;;21.43;72.24
20710;BME280;10516;51.518;9.864;2022-08-27T09:03:58;98708.06;;;21.41;71.56
20710;BME280;10516;51.518;9.864;2022-08-27T09:09:46;98720.69;;;21.37;72.15
20710;BME280;10516;51.518;9.864;2022-08-27T09:12:15;98730.75;;;21.11;73.37
20710;BME280;10516;51.518;9.864;2022-08-27T09:14:53;98729.44;;;21.59;71.58
20710;BME280;10516;51.518;9.864;2022-08-27T09:17:22;98718.34;;;21.90;70.08
20710;BME280;10516;51.518;9.864;2022-08-27T09:19:47;98718.66;;;21.80;70.62
20710;BME280;10516;51.518;9.864;2022-08-27T09:27:18;98725.88;;;21.76;70.32
20710;BME280;10516;51.518;9.864;2022-08-27T09:29:47;98727.41;;;22.03;69.71
20710;BME280;10516;51.518;9.864;2022-08-27T09:32:13;98711.22;;;22.06;69.67
20710;BME280;10516;51.518;9.864;2022-08-27T09:34:41;98715.59;;;21.99;69.50
20710;BME280;10516;51.518;9.864;2022-08-27T09:37:22;98728.47;;;22.19;69.39
20710;BME280;10516;51.518;9.864;2022-08-27T09:40:01;98724.69;;;22.03;69.83
20710;BME280;10516;51.518;9.864;2022-08-27T09:42:46;98733.09;;;22.18;69.48
20710;BME280;10516;51.518;9.864;2022-08-27T09:45:17;98738.84;;;22.25;69.35
20710;BME280;10516;51.518;9.864;2022-08-27T09:47:48;98735.09;;;22.38;68.94
20710;BME280;10516;51.518;9.864;2022-08-27T09:50:17;98739.84;;;22.42;68.71
20710;BME280;10516;51.518;9.864;2022-08-27T09:55:46;98741.00;;;22.41;69.16
20710;BME280;10516;51.518;9.864;2022-08-27T09:58:22;98748.44;;;22.52;68.39
20710;BME280;10516;51.518;9.864;2022-08-27T10:01:01;98735.78;;;22.27;69.25
20710;BME280;10516;51.518;9.864;2022-08-27T10:03:29;98727.88;;;22.43;68.69
20710;BME280;10516;51.518;9.864;2022-08-27T10:05:54;98724.94;;;22.18;69.24
20710;BME280;10516;51.518;9.864;2022-08-27T10:11:34;98742.81;;;22.86;67.75
20710;BME280;10516;51.518;9.864;2022-08-27T10:14:06;98731.00;;;23.03;67.31
20710;BME280;10516;51.518;9.864;2022-08-27T10:22:06;98722.41;;;23.13;66.90
20710;BME280;10516;51.518;9.864;2022-08-27T10:24:54;98726.59;;;23.31;66.56
20710;BME280;10516;51.518;9.864;2022-08-27T10:27:40;98725.56;;;23.24;66.56
20710;BME280;10516;51.518;9.864;2022-08-27T10:30:11;98719.41;;;23.27;66.53
20710;BME280;10516;51.518;9.864;2022-08-27T10:35:38;98727.72;;;23.51;65.36
20710;BME280;10516;51.518;9.864;2022-08-27T10:38:14;98730.69;;;23.58;65.76
20710;BME280;10516;51.518;9.864;2022-08-27T10:49:25;98729.03;;;23.77;64.87
20710;BME280;10516;51.518;9.864;2022-08-27T10:57:07;98741.72;;;23.61;65.31
20710;BME280;10516;51.518;9.864;2022-08-27T10:59:45;98740.41;;;23.79;64.84
20710;BME280;10516;51.518;9.864;2022-08-27T11:02:41;98728.94;;;23.86;64.28
20710;BME280;10516;51.518;9.864;2022-08-27T11:05:17;98737.22;;;23.77;64.16
20710;BME280;10516;51.518;9.864;2022-08-27T11:10:27;98724.50;;;23.69;64.29
20710;BME280;10516;51.518;9.864;2022-08-27T11:12:57;98712.88;;;23.60;64.69
20710;BME280;10516;51.518;9.864;2022-08-27T11:15:33;98735.56;;;23.97;64.22
20710;BME280;10516;51.518;9.864;2022-08-27T11:21:04;98735.94;;;24.08;63.31
20710;BME280;10516;51.518;9.864;2022-08-27T11:23:39;98735.22;;;23.54;64.73
20710;BME280;10516;51.518;9.864;2022-08-27T11:26:05;98725.81;;;23.63;64.72
20710;BME280;10516;51.518;9.864;2022-08-27T11:28:41;98722.94;;;23.80;63.96
20710;BME280;10516;51.518;9.864;2022-08-27T11:31:13;98735.00;;;23.26;65.31
20710;BME280;10516;51.518;9.864;2022-08-27T11:37:23;98727.56;;;23.80;64.01
20710;BME280;10516;51.518;9.864;2022-08-27T11:42:48;98720.00;;;23.53;64.56
20710;BME280;10516;51.518;9.864;2022-08-27T11:45:20;98722.63;;;23.61;64.65
20710;BME280;10516;51.518;9.864;2022-08-27T11:47:58;98726.78;;;23.79;63.64
20710;BME280;10516;51.518;9.864;2022-08-27T11:50:25;98730.97;;;23.44;64.95
20710;BME280;10516;51.518;9.864;2022-08-27T11:53:03;98744.34;;;23.37;65.10
20710;BME280;10516;51.518;9.864;2022-08-27T11:55:35;98736.75;;;23.22;65.49
20710;BME280;10516;51.518;9.864;2022-08-27T12:00:42;98740.69;;;22.71;66.81
20710;BME280;10516;51.518;9.864;2022-08-27T12:05:44;98753.78;;;22.78;66.92
20710;BME280;10516;51.518;9.864;2022-08-27T12:08:31;98746.72;;;23.18;65.70
20710;BME280;10516;51.518;9.864;2022-08-27T12:14:06;98756.69;;;23.14;65.45
20710;BME280;10516;51.518;9.864;2022-08-27T12:16:59;98731.53;;;22.76;66.16
20710;BME280;10516;51.518;9.864;2022-08-27T12:19:37;98749.78;;;22.75;66.57
20710;BME280;10516;51.518;9.864;2022-08-27T12:22:36;98748.69;;;22.68;66.40
20710;BME280;10516;51.518;9.864;2022-08-27T12:25:26;98722.81;;;22.62;66.05
20710;BME280;10516;51.518;9.864;2022-08-27T12:28:00;98751.53;;;22.42;66.83
20710;BME280;10516;51.518;9.864;2022-08-27T12:30:46;98729.22;;;22.57;66.33
20710;BME280;10516;51.518;9.864;2022-08-27T12:34:11;98703.38;;;22.43;66.06
20710;BME280;10516;51.518;9.864;2022-08-27T12:36:26;98737.91;;;22.51;66.07
20710;BME280;10516;51.518;9.864;2022-08-27T12:38:57;98752.47;;;22.46;66.51
20710;BME280;10516;51.518;9.864;2022-08-27T12:41:30;98745.84;;;22.64;65.94
20710;BME280;10516;51.518;9.864;2022-08-27T12:44:09;98765.72;;;22.65;65.91
20710;BME280;10516;51.518;9.864;2022-08-27T12:46:46;98734.41;;;22.42;66.38
20710;BME280;10516;51.518;9.864;2022-08-27T12:49:15;98761.44;;;22.47;66.22
20710;BME280;10516;51.518;9.864;2022-08-27T12:51:43;98760.69;;;22.37;66.74
20710;BME280;10516;51.518;9.864;2022-08-27T12:54:53;98759.63;;;22.30;66.87
20710;BME280;10516;51.518;9.864;2022-08-27T12:57:46;98760.22;;;22.35;66.66
20710;BME280;10516;51.518;9.864;2022-08-27T13:00:18;98731.19;;;21.64;67.83
20710;BME280;10516;51.518;9.864;2022-08-27T13:03:37;98756.91;;;22.21;67.01
20710;BME280;10516;51.518;9.864;2022-08-27T13:05:55;98773.81;;;21.89;67.94
20710;BME280;10516;51.518;9.864;2022-08-27T13:08:31;98743.13;;;22.26;66.08
20710;BME280;10516;51.518;9.864;2022-08-27T13:11:10;98713.69;;;21.99;66.42
20710;BME280;10516;51.518;9.864;2022-08-27T13:13:41;98769.88;;;22.24;66.71
20710;BME280;10516;51.518;9.864;2022-08-27T13:16:07;98735.81;;;22.18;66.22
20710;BME280;10516;51.518;9.864;2022-08-27T13:18:34;98757.31;;;22.03;66.97
20710;BME280;10516;51.518;9.864;2022-08-27T13:23:43;98766.56;;;22.02;66.83
20710;BME280;10516;51.518;9.864;2022-08-27T13:26:10;98772.53;;;21.87;67.57
20710;BME280;10516;51.518;9.864;2022-08-27T13:28:43;98724.44;;;21.70;67.23
20710;BME280;10516;51.518;9.864;2022-08-27T13:31:09;98772.22;;;21.97;67.19
20710;BME280;10516;51.518;9.864;2022-08-27T13:33:39;98710.72;;;21.58;67.33
20710;BME280;10516;51.518;9.864;2022-08-27T13:36:06;98767.78;;;21.49;68.35
20710;BME280;10516;51.518;9.864;2022-08-27T13:38:36;98774.94;;;21.62;67.79
20710;BME280;10516;51.518;9.864;2022-08-27T13:41:21;98775.91;;;21.92;67.09
20710;BME280;10516;51.518;9.864;2022-08-27T13:43:49;98782.13;;;21.84;67.46
20710;BME280;10516;51.518;9.864;2022-08-27T13:46:45;98786.81;;;21.32;68.46
20710;BME280;10516;51.518;9.864;2022-08-27T13:49:13;98776.69;;;21.84;67.10
20710;BME280;10516;51.518;9.864;2022-08-27T13:51:39;98762.78;;;21.94;66.70
20710;BME280;10516;51.518;9.864;2022-08-27T13:54:10;98771.13;;;21.63;67.45
20710;BME280;10516;51.518;9.864;2022-08-27T13:59:23;98768.47;;;21.29;68.05
20710;BME280;10516;51.518;9.864;2022-08-27T14:04:44;98782.31;;;21.45;67.99
20710;BME280;10516;51.518;9.864;2022-08-27T14:10:07;98774.16;;;21.79;66.98
20710;BME280;10516;51.518;9.864;2022-08-27T14:12:39;98778.19;;;21.39;67.93
20710;BME280;10516;51.518;9.864;2022-08-27T14:15:31;98780.56;;;21.23;68.55
20710;BME280;10516;51.518;9.864;2022-08-27T14:17:58;98784.44;;;21.14;68.86
20710;BME280;10516;51.518;9.864;2022-08-27T14:20:24;98773.38;;;21.19;68.60
20710;BME280;10516;51.518;9.864;2022-08-27T14:22:50;98781.00;;;21.94;66.49
20710;BME280;10516;51.518;9.864;2022-08-27T14:25:16;98784.56;;;21.86;66.67
20710;BME280;10516;51.518;9.864;2022-08-27T14:27:43;98790.31;;;21.50;67.72